sensor_id;sensor_type;location;lat;lon;timestamp;pressure;altitude;pressure_sealevel;temperature;humidity
51524;BME280;37610;51.790;21.590;2023-08-06T00:03:17;98809.71;;;20.88;88.27
51524;BME280;37610;51.790;21.590;2023-08-06T00:07:19;98800.00;;;20.88;88.36
51524;BME280;37610;51.790;21.590;2023-08-06T00:11:21;98780.96;;;20.87;88.61
51524;BME280;37610;51.790;21.590;2023-08-06T00:15:23;98777.04;;;20.89;88.56
51524;BME280;37610;51.790;21.590;2023-08-06T00:19:24;98775.07;;;20.91;88.58
51524;BME280;37610;51.790;21.590;2023-08-06T00:23:26;98766.65;;;20.91;88.74
51524;BME280;37610;51.790;21.590;2023-08-06T00:27:27;98758.63;;;20.92;88.61
51524;BME280;37610;51.790;21.590;2023-08-06T00:31:29;98757.23;;;20.90;89.06
51524;BME280;37610;51.790;21.590;2023-08-06T00:35:30;98760.16;;;20.88;89.09
51524;BME280;37610;51.790;21.590;2023-08-06T00:39:32;98753.49;;;20.87;89.24
51524;BME280;37610;51.790;21.590;2023-08-06T00:43:34;98754.34;;;20.85;89.68
51524;BME280;37610;51.790;21.590;2023-08-06T00:47:35;98753.27;;;20.83;90.16
51524;BME280;37610;51.790;21.590;2023-08-06T00:51:38;98746.39;;;20.80;90.13
51524;BME280;37610;51.790;21.590;2023-08-06T00:55:39;98750.89;;;20.78;90.21
51524;BME280;37610;51.790;21.590;2023-08-06T00:59:41;98754.30;;;20.77;90.06
51524;BME280;37610;51.790;21.590;2023-08-06T01:03:43;98756.30;;;20.74;90.26
51524;BME280;37610;51.790;21.590;2023-08-06T01:16:19;98727.10;;;20.73;89.94
51524;BME280;37610;51.790;21.590;2023-08-06T01:20:21;98714.00;;;20.71;90.50
51524;BME280;37610;51.790;21.590;2023-08-06T01:24:23;98709.86;;;20.69;90.39
51524;BME280;37610;51.790;21.590;2023-08-06T01:28:51;98692.53;;;20.68;90.47
51524;BME280;37610;51.790;21.590;2023-08-06T01:33:00;98684.64;;;20.66;90.49
51524;BME280;37610;51.790;21.590;2023-08-06T01:37:26;98672.63;;;20.64;90.55
51524;BME280;37610;51.790;21.590;2023-08-06T01:41:27;98659.69;;;20.60;90.46
51524;BME280;37610;51.790;21.590;2023-08-06T01:45:28;98652.32;;;20.57;90.58
51524;BME280;37610;51.790;21.590;2023-08-06T01:49:30;98647.38;;;20.53;90.66
51524;BME280;37610;51.790;21.590;2023-08-06T01:53:32;98630.67;;;20.50;90.57
51524;BME280;37610;51.790;21.590;2023-08-06T01:57:34;98610.20;;;20.48;90.79
51524;BME280;37610;51.790;21.590;2023-08-06T02:01:35;98603.90;;;20.43;90.90
51524;BME280;37610;51.790;21.590;2023-08-06T02:05:37;98610.27;;;20.39;91.17
51524;BME280;37610;51.790;21.590;2023-08-06T02:09:38;98616.42;;;20.38;91.04
51524;BME280;37610;51.790;21.590;2023-08-06T02:13:41;98618.77;;;20.37;91.14
51524;BME280;37610;51.790;21.590;2023-08-06T02:17:42;98601.98;;;20.37;91.54
51524;BME280;37610;51.790;21.590;2023-08-06T02:21:44;98592.14;;;20.37;91.15
51524;BME280;37610;51.790;21.590;2023-08-06T02:25:46;98587.47;;;20.38;91.21
51524;BME280;37610;51.790;21.590;2023-08-06T02:29:47;98583.77;;;20.36;91.02
51524;BME280;37610;51.790;21.590;2023-08-06T02:33:49;98570.11;;;20.33;90.87
51524;BME280;37610;51.790;21.590;2023-08-06T02:37:51;98566.60;;;20.29;90.68
51524;BME280;37610;51.790;21.590;2023-08-06T02:41:53;98567.04;;;20.26;91.04
51524;BME280;37610;51.790;21.590;2023-08-06T02:46:01;98563.47;;;20.20;90.93
51524;BME280;37610;51.790;21.590;2023-08-06T02:50:03;98556.45;;;20.16;91.23
51524;BME280;37610;51.790;21.590;2023-08-06T02:54:05;98548.36;;;20.10;90.96
51524;BME280;37610;51.790;21.590;2023-08-06T02:58:06;98539.27;;;20.06;90.85
51524;BME280;37610;51.790;21.590;2023-08-06T03:02:08;98530.73;;;20.04;90.89
51524;BME280;37610;51.790;21.590;2023-08-06T03:06:10;98524.71;;;20.01;90.95
51524;BME280;37610;51.790;21.590;2023-08-06T03:10:11;98517.66;;;19.98;91.04
51524;BME280;37610;51.790;21.590;2023-08-06T03:14:13;98508.77;;;19.96;90.95
51524;BME280;37610;51.790;21.590;2023-08-06T03:18:15;98506.61;;;19.95;91.03
51524;BME280;37610;51.790;21.590;2023-08-06T03:22:16;98505.20;;;19.94;91.00
51524;BME280;37610;51.790;21.590;2023-08-06T03:26:18;98501.14;;;19.93;90.72
51524;BME280;37610;51.790;21.590;2023-08-06T03:30:19;98489.66;;;19.94;91.03
51524;BME280;37610;51.790;21.590;2023-08-06T03:34:21;98481.55;;;19.94;90.91
51524;BME280;37610;51.790;21.590;2023-08-06T03:38:23;98479.83;;;19.94;90.75
51524;BME280;37610;51.790;21.590;2023-08-06T03:42:25;98470.74;;;19.95;90.78
51524;BME280;37610;51.790;21.590;2023-08-06T03:46:26;98469.82;;;19.96;90.92
51524;BME280;37610;51.790;21.590;2023-08-06T03:50:28;98459.09;;;19.98;90.67
51524;BME280;37610;51.790;21.590;2023-08-06T03:54:29;98456.45;;;19.99;90.49
51524;BME280;37610;51.790;21.590;2023-08-06T03:58:31;98449.57;;;20.00;90.25
51524;BME280;37610;51.790;21.590;2023-08-06T04:02:33;98450.30;;;20.03;90.26
51524;BME280;37610;51.790;21.590;2023-08-06T04:06:34;98447.95;;;20.05;90.33
51524;BME280;37610;51.790;21.590;2023-08-06T04:10:36;98447.77;;;20.07;90.14
51524;BME280;37610;51.790;21.590;2023-08-06T04:14:37;98441.69;;;20.10;90.09
51524;BME280;37610;51.790;21.590;2023-08-06T04:18:39;98434.75;;;20.14;90.07
51524;BME280;37610;51.790;21.590;2023-08-06T04:22:41;98432.52;;;20.19;90.06
51524;BME280;37610;51.790;21.590;2023-08-06T04:26:42;98426.83;;;20.23;89.71
51524;BME280;37610;51.790;21.590;2023-08-06T04:30:45;98418.78;;;20.27;89.44
51524;BME280;37610;51.790;21.590;2023-08-06T04:34:46;98407.86;;;20.29;89.23
51524;BME280;37610;51.790;21.590;2023-08-06T04:38:49;98407.17;;;20.34;89.28
51524;BME280;37610;51.790;21.590;2023-08-06T04:42:50;98400.14;;;20.41;89.01
51524;BME280;37610;51.790;21.590;2023-08-06T04:46:52;98394.13;;;20.51;88.79
51524;BME280;37610;51.790;21.590;2023-08-06T04:50:54;98389.11;;;20.60;88.52
51524;BME280;37610;51.790;21.590;2023-08-06T04:54:56;98378.47;;;20.69;88.19
51524;BME280;37610;51.790;21.590;2023-08-06T04:58:57;98376.04;;;20.78;87.78
51524;BME280;37610;51.790;21.590;2023-08-06T05:02:59;98370.66;;;20.85;87.35
51524;BME280;37610;51.790;21.590;2023-08-06T05:07:02;98363.02;;;20.93;87.09
51524;BME280;37610;51.790;21.590;2023-08-06T05:11:03;98362.99;;;20.99;86.67
51524;BME280;37610;51.790;21.590;2023-08-06T05:15:06;98360.11;;;21.07;85.96
51524;BME280;37610;51.790;21.590;2023-08-06T05:19:07;98354.40;;;21.15;85.56
51524;BME280;37610;51.790;21.590;2023-08-06T05:23:09;98349.48;;;21.22;85.38
51524;BME280;37610;51.790;21.590;2023-08-06T05:27:11;98348.86;;;21.31;84.86
51524;BME280;37610;51.790;21.590;2023-08-06T05:31:12;98343.95;;;21.39;84.80
51524;BME280;37610;51.790;21.590;2023-08-06T05:35:14;98345.38;;;21.47;84.23
51524;BME280;37610;51.790;21.590;2023-08-06T05:39:15;98341.94;;;21.55;83.67
51524;BME280;37610;51.790;21.590;2023-08-06T05:43:17;98339.96;;;21.62;83.40
51524;BME280;37610;51.790;21.590;2023-08-06T05:47:18;98344.89;;;21.70;83.08
51524;BME280;37610;51.790;21.590;2023-08-06T05:51:21;98336.56;;;21.78;82.94
51524;BME280;37610;51.790;21.590;2023-08-06T05:55:22;98334.80;;;21.88;82.56
51524;BME280;37610;51.790;21.590;2023-08-06T05:59:24;98334.45;;;21.97;82.10
51524;BME280;37610;51.790;21.590;2023-08-06T06:03:26;98327.62;;;22.07;81.88
51524;BME280;37610;51.790;21.590;2023-08-06T06:07:28;98320.77;;;22.15;81.22
51524;BME280;37610;51.790;21.590;2023-08-06T06:11:29;98314.06;;;22.22;80.86
51524;BME280;37610;51.790;21.590;2023-08-06T06:15:31;98315.04;;;22.30;80.65
51524;BME280;37610;51.790;21.590;2023-08-06T06:19:32;98313.80;;;22.38;80.20
51524;BME280;37610;51.790;21.590;2023-08-06T06:23:34;98310.09;;;22.44;79.65
51524;BME280;37610;51.790;21.590;2023-08-06T06:27:35;98310.14;;;22.52;79.27
51524;BME280;37610;51.790;21.590;2023-08-06T06:31:37;98306.89;;;22.62;79.32
51524;BME280;37610;51.790;21.590;2023-08-06T06:35:38;98306.05;;;22.72;78.62
51524;BME280;37610;51.790;21.590;2023-08-06T06:39:40;98304.35;;;22.81;78.26
51524;BME280;37610;51.790;21.590;2023-08-06T06:43:42;98309.44;;;22.90;78.28
51524;BME280;37610;51.790;21.590;2023-08-06T06:47:43;98314.56;;;23.01;77.92
51524;BME280;37610;51.790;21.590;2023-08-06T06:51:45;98310.71;;;23.10;77.22
51524;BME280;37610;51.790;21.590;2023-08-06T06:55:46;98310.63;;;23.19;77.17
51524;BME280;37610;51.790;21.590;2023-08-06T06:59:50;98310.67;;;23.32;76.79
51524;BME280;37610;51.790;21.590;2023-08-06T07:03:52;98306.37;;;23.46;76.46
51524;BME280;37610;51.790;21.590;2023-08-06T07:07:53;98306.58;;;23.59;76.16
51524;BME280;37610;51.790;21.590;2023-08-06T07:11:55;98301.52;;;23.68;75.46
51524;BME280;37610;51.790;21.590;2023-08-06T07:15:56;98296.59;;;23.73;75.08
51524;BME280;37610;51.790;21.590;2023-08-06T07:19:58;98286.70;;;23.79;75.10
51524;BME280;37610;51.790;21.590;2023-08-06T07:23:59;98287.38;;;23.89;74.83
51524;BME280;37610;51.790;21.590;2023-08-06T07:28:01;98292.01;;;24.00;74.74
51524;BME280;37610;51.790;21.590;2023-08-06T07:32:04;98291.20;;;24.07;74.00
51524;BME280;37610;51.790;21.590;2023-08-06T07:36:13;98292.94;;;24.13;73.57
51524;BME280;37610;51.790;21.590;2023-08-06T07:40:15;98289.95;;;24.15;73.39
51524;BME280;37610;51.790;21.590;2023-08-06T07:44:16;98285.40;;;24.23;73.79
51524;BME280;37610;51.790;21.590;2023-08-06T07:48:18;98284.27;;;24.32;73.58
51524;BME280;37610;51.790;21.590;2023-08-06T07:52:19;98279.29;;;24.42;73.54
51524;BME280;37610;51.790;21.590;2023-08-06T07:56:21;98270.61;;;24.52;73.29
51524;BME280;37610;51.790;21.590;2023-08-06T08:00:23;98272.14;;;24.62;72.11
51524;BME280;37610;51.790;21.590;2023-08-06T08:04:24;98267.27;;;24.70;71.96
51524;BME280;37610;51.790;21.590;2023-08-06T08:08:26;98260.84;;;24.75;71.77
51524;BME280;37610;51.790;21.590;2023-08-06T08:12:27;98257.71;;;24.85;71.14
51524;BME280;37610;51.790;21.590;2023-08-06T08:16:29;98265.02;;;24.93;71.12
51524;BME280;37610;51.790;21.590;2023-08-06T08:20:30;98266.02;;;25.02;70.64
51524;BME280;37610;51.790;21.590;2023-08-06T08:24:37;98266.71;;;25.18;70.42
51524;BME280;37610;51.790;21.590;2023-08-06T08:28:39;98260.66;;;25.33;69.73
51524;BME280;37610;51.790;21.590;2023-08-06T08:32:40;98256.64;;;25.42;69.77
51524;BME280;37610;51.790;21.590;2023-08-06T08:36:42;98258.10;;;25.46;69.29
51524;BME280;37610;51.790;21.590;2023-08-06T08:40:46;98252.31;;;25.55;68.54
51524;BME280;37610;51.790;21.590;2023-08-06T08:44:48;98252.09;;;25.76;68.61
51524;BME280;37610;51.790;21.590;2023-08-06T08:48:50;98247.19;;;26.00;68.09
51524;BME280;37610;51.790;21.590;2023-08-06T08:52:52;98241.96;;;26.27;67.50
51524;BME280;37610;51.790;21.590;2023-08-06T08:56:53;98239.77;;;26.58;66.25
51524;BME280;37610;51.790;21.590;2023-08-06T09:00:57;98232.48;;;26.91;65.04
51524;BME280;37610;51.790;21.590;2023-08-06T09:05:03;98232.79;;;27.19;63.64
51524;BME280;37610;51.790;21.590;2023-08-06T09:09:12;98224.21;;;27.36;62.87
51524;BME280;37610;51.790;21.590;2023-08-06T09:13:15;98213.31;;;27.37;62.28
51524;BME280;37610;51.790;21.590;2023-08-06T09:17:17;98213.64;;;27.37;62.14
51524;BME280;37610;51.790;21.590;2023-08-06T09:21:21;98212.36;;;27.30;61.21
51524;BME280;37610;51.790;21.590;2023-08-06T09:25:23;98206.09;;;27.25;61.17
51524;BME280;37610;51.790;21.590;2023-08-06T09:29:31;98196.48;;;27.24;61.89
51524;BME280;37610;51.790;21.590;2023-08-06T09:33:36;98196.96;;;27.25;60.31
51524;BME280;37610;51.790;21.590;2023-08-06T09:37:37;98193.16;;;27.24;60.68
51524;BME280;37610;51.790;21.590;2023-08-06T09:41:39;98189.76;;;27.30;60.22
51524;BME280;37610;51.790;21.590;2023-08-06T09:45:41;98174.62;;;27.39;60.02
51524;BME280;37610;51.790;21.590;2023-08-06T09:49:42;98172.30;;;27.43;59.76
51524;BME280;37610;51.790;21.590;2023-08-06T09:53:45;98175.54;;;27.54;59.12
51524;BME280;37610;51.790;21.590;2023-08-06T09:57:49;98171.17;;;27.63;58.32
51524;BME280;37610;51.790;21.590;2023-08-06T10:01:51;98163.00;;;27.65;58.01
51524;BME280;37610;51.790;21.590;2023-08-06T10:05:55;98156.89;;;27.79;58.27
51524;BME280;37610;51.790;21.590;2023-08-06T10:09:58;98156.52;;;28.00;58.07
51524;BME280;37610;51.790;21.590;2023-08-06T10:14:11;98156.73;;;28.25;57.20
51524;BME280;37610;51.790;21.590;2023-08-06T10:18:14;98153.64;;;28.43;56.35
51524;BME280;37610;51.790;21.590;2023-08-06T10:22:22;98152.02;;;28.44;55.69
51524;BME280;37610;51.790;21.590;2023-08-06T10:26:26;98147.08;;;28.45;52.99
51524;BME280;37610;51.790;21.590;2023-08-06T10:30:32;98137.38;;;28.36;52.78
51524;BME280;37610;51.790;21.590;2023-08-06T10:35:06;98136.06;;;28.47;53.30
51524;BME280;37610;51.790;21.590;2023-08-06T10:39:13;98129.23;;;28.55;53.17
51524;BME280;37610;51.790;21.590;2023-08-06T10:47:30;98113.59;;;28.67;54.22
51524;BME280;37610;51.790;21.590;2023-08-06T10:51:31;98108.88;;;28.86;54.49
51524;BME280;37610;51.790;21.590;2023-08-06T10:55:34;98104.04;;;28.95;53.74
51524;BME280;37610;51.790;21.590;2023-08-06T10:59:36;98099.42;;;29.01;53.42
51524;BME280;37610;51.790;21.590;2023-08-06T11:03:37;98087.79;;;29.29;53.78
51524;BME280;37610;51.790;21.590;2023-08-06T11:07:39;98084.56;;;29.50;53.13
51524;BME280;37610;51.790;21.590;2023-08-06T11:11:41;98083.85;;;29.51;52.23
51524;BME280;37610;51.790;21.590;2023-08-06T11:15:45;98084.94;;;29.51;52.24
51524;BME280;37610;51.790;21.590;2023-08-06T11:19:46;98079.70;;;29.62;51.84
51524;BME280;37610;51.790;21.590;2023-08-06T11:23:48;98063.23;;;29.86;51.32
51524;BME280;37610;51.790;21.590;2023-08-06T11:27:50;98052.91;;;29.96;50.29
51524;BME280;37610;51.790;21.590;2023-08-06T11:31:51;98050.58;;;29.92;50.56
51524;BME280;37610;51.790;21.590;2023-08-06T11:35:58;98051.38;;;30.05;50.60
51524;BME280;37610;51.790;21.590;2023-08-06T11:40:00;98055.67;;;30.25;49.87
51524;BME280;37610;51.790;21.590;2023-08-06T11:44:03;98046.17;;;30.28;48.81
51524;BME280;37610;51.790;21.590;2023-08-06T11:48:05;98039.17;;;30.30;48.26
51524;BME280;37610;51.790;21.590;2023-08-06T11:52:15;98052.15;;;30.06;48.58
51524;BME280;37610;51.790;21.590;2023-08-06T11:56:20;98062.96;;;29.79;49.50
51524;BME280;37610;51.790;21.590;2023-08-06T12:00:24;98063.71;;;29.45;49.66
51524;BME280;37610;51.790;21.590;2023-08-06T12:04:25;98060.20;;;29.12;49.96
51524;BME280;37610;51.790;21.590;2023-08-06T12:08:27;98044.23;;;28.77;50.08
51524;BME280;37610;51.790;21.590;2023-08-06T12:12:29;98049.35;;;28.45;50.40
51524;BME280;37610;51.790;21.590;2023-08-06T12:16:31;98052.77;;;28.19;50.97
51524;BME280;37610;51.790;21.590;2023-08-06T12:20:32;98046.98;;;28.00;51.41
51524;BME280;37610;51.790;21.590;2023-08-06T12:24:34;98035.66;;;27.90;51.83
51524;BME280;37610;51.790;21.590;2023-08-06T12:28:35;98053.54;;;27.88;51.65
51524;BME280;37610;51.790;21.590;2023-08-06T12:32:38;98048.46;;;27.92;51.72
51524;BME280;37610;51.790;21.590;2023-08-06T12:36:39;98079.75;;;27.90;51.75
51524;BME280;37610;51.790;21.590;2023-08-06T12:40:41;98096.41;;;27.61;52.52
51524;BME280;37610;51.790;21.590;2023-08-06T12:44:43;98105.97;;;27.58;52.36
51524;BME280;37610;51.790;21.590;2023-08-06T12:48:44;98100.77;;;27.69;51.64
51524;BME280;37610;51.790;21.590;2023-08-06T12:52:46;98104.52;;;27.80;51.28
51524;BME280;37610;51.790;21.590;2023-08-06T12:56:48;98102.19;;;27.94;50.64
51524;BME280;37610;51.790;21.590;2023-08-06T13:00:50;98090.29;;;28.26;49.14
51524;BME280;37610;51.790;21.590;2023-08-06T13:04:51;98086.46;;;28.80;48.64
51524;BME280;37610;51.790;21.590;2023-08-06T13:08:53;98077.38;;;28.89;48.56
51524;BME280;37610;51.790;21.590;2023-08-06T13:12:54;98068.31;;;29.04;49.09
51524;BME280;37610;51.790;21.590;2023-08-06T13:16:55;98059.94;;;29.37;49.01
51524;BME280;37610;51.790;21.590;2023-08-06T13:20:57;98071.09;;;29.91;47.87
51524;BME280;37610;51.790;21.590;2023-08-06T13:24:59;98084.05;;;30.13;47.25
51524;BME280;37610;51.790;21.590;2023-08-06T13:29:00;98092.92;;;30.29;46.97
51524;BME280;37610;51.790;21.590;2023-08-06T13:33:03;98084.67;;;30.16;46.95
51524;BME280;37610;51.790;21.590;2023-08-06T13:37:05;98074.55;;;29.96;47.33
51524;BME280;37610;51.790;21.590;2023-08-06T13:41:07;98065.70;;;30.27;47.36
51524;BME280;37610;51.790;21.590;2023-08-06T13:45:09;98065.02;;;31.07;46.68
51524;BME280;37610;51.790;21.590;2023-08-06T13:49:11;98066.15;;;31.67;44.68
51524;BME280;37610;51.790;21.590;2023-08-06T13:53:13;98071.30;;;31.85;43.91
51524;BME280;37610;51.790;21.590;2023-08-06T13:57:14;98073.08;;;31.50;43.62
51524;BME280;37610;51.790;21.590;2023-08-06T14:01:17;98086.54;;;31.02;44.28
51524;BME280;37610;51.790;21.590;2023-08-06T14:05:20;98089.69;;;31.14;44.24
51524;BME280;37610;51.790;21.590;2023-08-06T14:09:22;98101.52;;;32.00;42.67
51524;BME280;37610;51.790;21.590;2023-08-06T14:13:23;98106.13;;;33.06;40.97
51524;BME280;37610;51.790;21.590;2023-08-06T14:17:25;98106.52;;;36.76;36.20
51524;BME280;37610;51.790;21.590;2023-08-06T14:21:26;98094.79;;;40.48;32.65
51524;BME280;37610;51.790;21.590;2023-08-06T14:25:28;98101.19;;;42.83;28.10
51524;BME280;37610;51.790;21.590;2023-08-06T14:29:29;98103.91;;;43.81;25.82
51524;BME280;37610;51.790;21.590;2023-08-06T14:33:31;98106.61;;;45.10;24.08
51524;BME280;37610;51.790;21.590;2023-08-06T14:37:32;98112.39;;;45.46;23.38
51524;BME280;37610;51.790;21.590;2023-08-06T14:41:35;98105.24;;;42.62;25.27
51524;BME280;37610;51.790;21.590;2023-08-06T14:45:38;98105.63;;;39.88;27.49
51524;BME280;37610;51.790;21.590;2023-08-06T14:49:40;98107.86;;;37.99;29.45
51524;BME280;37610;51.790;21.590;2023-08-06T14:53:43;98113.84;;;38.03;28.63
51524;BME280;37610;51.790;21.590;2023-08-06T14:57:45;98113.87;;;37.16;29.38
51524;BME280;37610;51.790;21.590;2023-08-06T15:01:46;98118.86;;;35.80;31.11
51524;BME280;37610;51.790;21.590;2023-08-06T15:05:49;98127.45;;;35.50;32.19
51524;BME280;37610;51.790;21.590;2023-08-06T15:09:50;98142.27;;;34.50;33.46
51524;BME280;37610;51.790;21.590;2023-08-06T15:13:54;98133.00;;;33.36;35.28
51524;BME280;37610;51.790;21.590;2023-08-06T15:17:56;98129.06;;;32.51;36.11
51524;BME280;37610;51.790;21.590;2023-08-06T15:21:57;98126.86;;;31.69;36.91
51524;BME280;37610;51.790;21.590;2023-08-06T15:25:59;98128.11;;;31.05;37.72
51524;BME280;37610;51.790;21.590;2023-08-06T15:30:02;98131.32;;;30.50;38.51
51524;BME280;37610;51.790;21.590;2023-08-06T15:34:07;98129.71;;;29.93;38.90
51524;BME280;37610;51.790;21.590;2023-08-06T15:38:09;98131.13;;;29.43;40.37
51524;BME280;37610;51.790;21.590;2023-08-06T15:42:10;98134.60;;;29.02;41.28
51524;BME280;37610;51.790;21.590;2023-08-06T15:46:12;98144.74;;;28.87;42.04
51524;BME280;37610;51.790;21.590;2023-08-06T15:50:14;98148.76;;;28.96;41.73
51524;BME280;37610;51.790;21.590;2023-08-06T15:54:15;98156.59;;;29.29;41.74
51524;BME280;37610;51.790;21.590;2023-08-06T15:58:17;98166.25;;;29.56;41.21
51524;BME280;37610;51.790;21.590;2023-08-06T16:02:18;98158.77;;;29.72;40.97
51524;BME280;37610;51.790;21.590;2023-08-06T16:06:20;98141.26;;;29.66;41.28
51524;BME280;37610;51.790;21.590;2023-08-06T16:10:21;98144.58;;;29.45;41.72
51524;BME280;37610;51.790;21.590;2023-08-06T16:14:23;98155.64;;;29.15;42.33
51524;BME280;37610;51.790;21.590;2023-08-06T16:18:24;98163.60;;;28.78;43.06
51524;BME280;37610;51.790;21.590;2023-08-06T16:22:26;98158.77;;;28.44;43.80
51524;BME280;37610;51.790;21.590;2023-08-06T16:26:27;98134.01;;;28.03;44.98
51524;BME280;37610;51.790;21.590;2023-08-06T16:30:29;98149.02;;;27.77;45.59
51524;BME280;37610;51.790;21.590;2023-08-06T16:34:33;98148.89;;;27.52;46.08
51524;BME280;37610;51.790;21.590;2023-08-06T16:38:34;98152.66;;;27.30;46.77
51524;BME280;37610;51.790;21.590;2023-08-06T16:42:36;98154.27;;;27.12;47.24
51524;BME280;37610;51.790;21.590;2023-08-06T16:46:38;98147.78;;;26.98;47.52
51524;BME280;37610;51.790;21.590;2023-08-06T16:50:40;98157.16;;;26.89;47.98
51524;BME280;37610;51.790;21.590;2023-08-06T16:54:41;98160.35;;;26.77;48.57
51524;BME280;37610;51.790;21.590;2023-08-06T16:58:43;98154.61;;;26.62;49.26
51524;BME280;37610;51.790;21.590;2023-08-06T17:02:44;98150.22;;;26.40;49.11
51524;BME280;37610;51.790;21.590;2023-08-06T17:06:46;98147.17;;;26.22;49.76
51524;BME280;37610;51.790;21.590;2023-08-06T17:10:48;98145.95;;;26.03;50.15
51524;BME280;37610;51.790;21.590;2023-08-06T17:14:50;98150.00;;;25.88;50.45
51524;BME280;37610;51.790;21.590;2023-08-06T17:18:51;98156.70;;;25.75;50.86
51524;BME280;37610;51.790;21.590;2023-08-06T17:22:53;98160.84;;;25.63;51.71
51524;BME280;37610;51.790;21.590;2023-08-06T17:26:55;98173.79;;;25.48;52.18
51524;BME280;37610;51.790;21.590;2023-08-06T17:30:59;98182.97;;;25.41;51.99
51524;BME280;37610;51.790;21.590;2023-08-06T17:35:01;98201.49;;;25.35;52.38
51524;BME280;37610;51.790;21.590;2023-08-06T17:39:03;98230.56;;;25.10;54.75
51524;BME280;37610;51.790;21.590;2023-08-06T17:43:07;98241.13;;;24.59;57.10
51524;BME280;37610;51.790;21.590;2023-08-06T17:47:11;98242.86;;;24.02;59.20
51524;BME280;37610;51.790;21.590;2023-08-06T17:51:13;98249.34;;;23.54;60.93
51524;BME280;37610;51.790;21.590;2023-08-06T17:55:14;98256.04;;;23.11;62.62
51524;BME280;37610;51.790;21.590;2023-08-06T17:59:16;98252.13;;;22.85;63.68
51524;BME280;37610;51.790;21.590;2023-08-06T18:03:18;98262.67;;;22.52;64.34
51524;BME280;37610;51.790;21.590;2023-08-06T18:07:19;98259.36;;;22.16;64.70
51524;BME280;37610;51.790;21.590;2023-08-06T18:11:21;98265.10;;;21.84;65.23
51524;BME280;37610;51.790;21.590;2023-08-06T18:15:23;98271.30;;;21.60;65.24
51524;BME280;37610;51.790;21.590;2023-08-06T18:19:24;98274.23;;;21.41;65.38
51524;BME280;37610;51.790;21.590;2023-08-06T18:23:26;98282.95;;;21.19;65.44
51524;BME280;37610;51.790;21.590;2023-08-06T18:27:28;98295.78;;;20.98;65.03
51524;BME280;37610;51.790;21.590;2023-08-06T18:31:29;98299.33;;;20.70;65.43
51524;BME280;37610;51.790;21.590;2023-08-06T18:35:31;98310.78;;;20.47;65.72
51524;BME280;37610;51.790;21.590;2023-08-06T18:39:33;98319.73;;;20.36;66.20
51524;BME280;37610;51.790;21.590;2023-08-06T18:43:34;98320.46;;;20.26;66.20
51524;BME280;37610;51.790;21.590;2023-08-06T18:47:36;98323.15;;;20.11;66.86
51524;BME280;37610;51.790;21.590;2023-08-06T18:51:38;98326.63;;;20.02;66.89
51524;BME280;37610;51.790;21.590;2023-08-06T18:55:49;98339.14;;;19.90;67.07
51524;BME280;37610;51.790;21.590;2023-08-06T18:59:51;98328.56;;;19.85;67.26
51524;BME280;37610;51.790;21.590;2023-08-06T19:03:54;98330.58;;;19.77;67.79
51524;BME280;37610;51.790;21.590;2023-08-06T19:07:56;98326.08;;;19.68;68.11
51524;BME280;37610;51.790;21.590;2023-08-06T19:11:58;98329.23;;;19.59;68.29
51524;BME280;37610;51.790;21.590;2023-08-06T19:15:59;98320.95;;;19.52;68.17
51524;BME280;37610;51.790;21.590;2023-08-06T19:20:01;98332.60;;;19.37;68.11
51524;BME280;37610;51.790;21.590;2023-08-06T19:24:02;98351.63;;;19.28;67.69
51524;BME280;37610;51.790;21.590;2023-08-06T19:28:04;98350.23;;;19.01;67.28
51524;BME280;37610;51.790;21.590;2023-08-06T19:32:07;98347.45;;;18.79;67.49
51524;BME280;37610;51.790;21.590;2023-08-06T19:36:09;98339.61;;;18.68;67.81
51524;BME280;37610;51.790;21.590;2023-08-06T19:40:10;98328.95;;;18.60;67.98
51524;BME280;37610;51.790;21.590;2023-08-06T19:44:15;98319.06;;;18.53;68.40
51524;BME280;37610;51.790;21.590;2023-08-06T19:48:27;98318.83;;;18.46;68.64
51524;BME280;37610;51.790;21.590;2023-08-06T19:52:28;98316.33;;;18.39;68.98
51524;BME280;37610;51.790;21.590;2023-08-06T19:56:30;98309.65;;;18.34;69.12
51524;BME280;37610;51.790;21.590;2023-08-06T20:00:31;98307.41;;;18.32;69.51
51524;BME280;37610;51.790;21.590;2023-08-06T20:04:33;98298.83;;;18.33;69.74
51524;BME280;37610;51.790;21.590;2023-08-06T20:08:35;98292.32;;;18.33;69.65
51524;BME280;37610;51.790;21.590;2023-08-06T20:12:39;98285.28;;;18.29;69.93
51524;BME280;37610;51.790;21.590;2023-08-06T20:16:41;98304.20;;;18.23;70.33
51524;BME280;37610;51.790;21.590;2023-08-06T20:20:43;98312.58;;;18.20;70.50
51524;BME280;37610;51.790;21.590;2023-08-06T20:24:44;98310.85;;;18.16;70.76
51524;BME280;37610;51.790;21.590;2023-08-06T20:28:46;98314.85;;;18.17;70.66
51524;BME280;37610;51.790;21.590;2023-08-06T20:32:49;98311.67;;;18.20;70.93
51524;BME280;37610;51.790;21.590;2023-08-06T20:36:51;98307.91;;;18.19;71.12
51524;BME280;37610;51.790;21.590;2023-08-06T20:40:53;98316.96;;;18.21;71.05
51524;BME280;37610;51.790;21.590;2023-08-06T20:44:56;98327.52;;;18.24;70.81
51524;BME280;37610;51.790;21.590;2023-08-06T20:48:58;98330.45;;;18.25;71.09
51524;BME280;37610;51.790;21.590;2023-08-06T20:53:00;98337.39;;;18.24;71.33
51524;BME280;37610;51.790;21.590;2023-08-06T20:57:01;98343.02;;;18.28;70.96
51524;BME280;37610;51.790;21.590;2023-08-06T21:01:03;98336.02;;;18.23;71.14
51524;BME280;37610;51.790;21.590;2023-08-06T21:05:04;98340.21;;;18.23;70.87
51524;BME280;37610;51.790;21.590;2023-08-06T21:09:06;98341.31;;;18.16;71.21
51524;BME280;37610;51.790;21.590;2023-08-06T21:13:10;98344.57;;;18.09;71.23
51524;BME280;37610;51.790;21.590;2023-08-06T21:17:12;98358.42;;;18.06;71.23
51524;BME280;37610;51.790;21.590;2023-08-06T21:21:14;98361.27;;;18.02;71.20